Time;durP1;ratioP1;P1;durP2;ratioP2;P2;SDS_P1;SDS_P2;PMS_P1;PMS_P2;Temp;Humidity;BMP_temperature;BMP_pressure;BME280_temperature;BME280_humidity;BME280_pressure;Samples;Min_cycle;Max_cycle;Signal;HPM_P1;HPM_P2
2023/07/19 00:00:29;;;;;;;8.00;3.35;;;;;;;29.22;37.59;99545.22;3084771;28;20050;-73
2023/07/19 00:02:00;;;;;;;5.95;3.50;;;;;;;29.21;37.91;99548.94;3084961;28;20052;-74
2023/07/19 00:03:33;;;;;;;5.95;3.05;;;;;;;29.25;37.71;99558.25;3074861;28;20055;-72
2023/07/19 00:05:05;;;;;;;5.72;3.53;;;;;;;29.22;37.87;99543.41;3080569;28;20133;-73
2023/07/19 00:06:36;;;;;;;7.03;2.88;;;;;;;29.21;37.66;99541.72;3073079;28;20062;-74
2023/07/19 00:08:07;;;;;;;6.13;3.33;;;;;;;29.21;37.68;99541.72;3078578;28;20042;-72
2023/07/19 00:09:39;;;;;;;7.97;3.15;;;;;;;29.22;37.61;99532.66;3084695;28;20051;-73
2023/07/19 00:11:10;;;;;;;4.97;3.08;;;;;;;29.22;37.31;99527.31;3077922;28;20098;-73
2023/07/19 00:12:42;;;;;;;6.32;3.25;;;;;;;29.22;37.32;99526.44;3076210;28;20055;-73
2023/07/19 00:14:12;;;;;;;7.43;3.40;;;;;;;29.21;37.48;99528.31;3084602;28;20047;-73
2023/07/19 00:15:44;;;;;;;8.13;3.58;;;;;;;29.19;37.70;99530.34;3084915;28;20080;-73
2023/07/19 00:17:15;;;;;;;8.80;4.07;;;;;;;29.20;37.76;99523.97;3084365;28;20055;-74
2023/07/19 00:18:48;;;;;;;5.28;3.42;;;;;;;29.21;37.71;99525.63;3084417;28;20530;-75
2023/07/19 00:20:19;;;;;;;;;;;;;;;29.06;37.60;99530.28;3080760;28;20047;-76
2023/07/19 00:21:51;;;;;;;5.88;3.33;;;;;;;29.12;37.85;99524.13;3072467;28;19922;-76
2023/07/19 00:23:22;;;;;;;9.30;3.50;;;;;;;29.16;37.61;99517.34;3084364;28;20145;-79
2023/07/19 00:24:53;;;;;;;6.05;3.08;;;;;;;29.14;37.82;99527.44;3084511;28;20050;-76
2023/07/19 00:26:24;;;;;;;4.90;2.88;;;;;;;29.14;37.94;99526.63;3075953;28;20058;-75
2023/07/19 00:27:56;;;;;;;5.20;3.38;;;;;;;29.14;37.58;99534.66;3072413;28;20061;-76
2023/07/19 00:29:27;;;;;;;7.55;3.30;;;;;;;29.13;37.64;99525.78;3080715;28;20059;-76
2023/07/19 00:31:03;;;;;;;6.65;3.45;;;;;;;29.13;37.81;99516.91;3084340;28;20055;-76
2023/07/19 00:32:33;;;;;;;7.03;3.33;;;;;;;29.12;37.64;99526.81;3081156;28;20117;-76
2023/07/19 00:34:07;;;;;;;12.07;3.72;;;;;;;29.09;37.59;99524.53;3078827;28;20133;-76
2023/07/19 00:35:40;;;;;;;;;;;;;;;28.92;37.91;99523.13;3074248;28;20051;-76
2023/07/19 00:37:12;;;;;;;7.60;3.53;;;;;;;28.95;37.94;99526.25;3077832;28;19930;-76
2023/07/19 00:38:43;;;;;;;8.27;3.25;;;;;;;28.97;37.81;99526.06;3084139;28;20062;-76
2023/07/19 00:40:15;;;;;;;4.78;3.17;;;;;;;28.93;38.11;99522.94;3084340;28;20050;-76
2023/07/19 00:41:46;;;;;;;6.50;3.50;;;;;;;28.95;38.10;99523.56;3073078;28;20047;-76
2023/07/19 00:43:17;;;;;;;8.35;3.30;;;;;;;28.95;38.09;99525.41;3074624;28;20054;-76
2023/07/19 00:44:49;;;;;;;9.00;4.10;;;;;;;28.95;38.22;99515.53;3084117;28;20057;-76
2023/07/19 00:46:20;;;;;;;7.50;3.30;;;;;;;28.98;37.94;99516.97;3083982;28;20054;-76
2023/07/19 00:47:54;;;;;;;8.20;3.13;;;;;;;28.95;38.19;99520.06;3084408;28;20051;-75
2023/07/19 00:49:27;;;;;;;5.18;3.25;;;;;;;28.96;38.14;99522.56;3080386;28;20039;-75
2023/07/19 00:50:59;;;;;;;7.07;3.38;;;;;;;28.93;38.19;99516.72;3060492;29;20051;-75
2023/07/19 00:52:30;;;;;;;7.00;3.42;;;;;;;28.89;38.29;99520.84;3079467;28;20070;-74
2023/07/19 00:54:04;;;;;;;7.93;2.97;;;;;;;28.87;38.48;99521.03;3072097;28;20121;-74
2023/07/19 00:55:35;;;;;;;4.88;3.13;;;;;;;28.86;38.51;99515.88;3079832;28;20051;-74
2023/07/19 00:57:09;;;;;;;6.60;3.78;;;;;;;28.85;38.36;99519.59;3071983;28;20191;-74
2023/07/19 00:58:40;;;;;;;5.78;3.38;;;;;;;28.80;38.15;99523.66;3078340;28;20515;-75
2023/07/19 01:00:13;;;;;;;4.05;2.88;;;;;;;28.75;38.44;99520.75;3079683;28;20109;-75
2023/07/19 01:01:45;;;;;;;7.78;3.55;;;;;;;28.76;38.51;99525.06;3084373;28;20053;-75
2023/07/19 01:03:16;;;;;;;5.90;2.95;;;;;;;28.76;38.63;99526.94;3074346;28;20082;-75
2023/07/19 01:04:49;;;;;;;6.60;3.08;;;;;;;28.75;38.65;99535.97;3072043;28;20051;-76
2023/07/19 01:06:20;;;;;;;;;;;;;;;28.51;38.61;99539.88;3077222;28;20054;-76
2023/07/19 01:07:53;;;;;;;8.15;3.65;;;;;;;28.55;38.57;99536.66;3079895;28;20021;-76
2023/07/19 01:09:26;;;;;;;6.85;3.40;;;;;;;28.56;38.65;99526.75;3071943;28;20437;-76
2023/07/19 01:10:58;;;;;;;5.53;3.13;;;;;;;28.54;38.78;99528.78;3071849;28;20105;-74
2023/07/19 01:12:29;;;;;;;7.55;3.47;;;;;;;28.50;39.12;99523.00;3074504;28;20055;-76
2023/07/19 01:14:01;;;;;;;4.28;3.22;;;;;;;28.48;39.19;99527.69;3083571;28;20136;-76
2023/07/19 01:15:32;;;;;;;9.18;4.10;;;;;;;28.43;39.01;99516.75;3083793;28;20054;-76
2023/07/19 01:17:04;;;;;;;6.20;3.30;;;;;;;28.44;39.06;99523.75;3083829;28;20117;-76
2023/07/19 01:18:35;;;;;;;7.05;3.15;;;;;;;28.40;38.88;99527.81;3080878;28;20051;-77
2023/07/19 01:20:09;;;;;;;7.50;2.80;;;;;;;28.42;39.19;99528.47;3071931;28;20051;-76
2023/07/19 01:21:40;;;;;;;7.90;3.35;;;;;;;28.38;39.20;99521.81;3082532;28;20054;-77
2023/07/19 01:23:13;;;;;;;6.43;3.20;;;;;;;28.39;39.20;99519.97;3083724;28;20047;-76
2023/07/19 01:24:44;;;;;;;3.95;2.88;;;;;;;28.38;38.95;99529.84;3084072;28;20050;-76
2023/07/19 01:26:16;;;;;;;8.60;3.42;;;;;;;28.36;39.02;99529.22;3076246;28;20102;-76
2023/07/19 01:27:47;;;;;;;3.92;2.92;;;;;;;28.34;39.28;99524.06;3079879;28;20059;-76
2023/07/19 01:29:19;;;;;;;10.00;3.42;;;;;;;28.37;39.31;99533.56;3076488;28;20547;-76
2023/07/19 01:30:50;;;;;;;4.57;3.42;;;;;;;28.38;39.33;99526.34;3078028;28;20449;-76
2023/07/19 01:32:22;;;;;;;5.30;3.65;;;;;;;28.37;39.21;99528.22;3083897;28;20053;-76
2023/07/19 01:33:53;;;;;;;5.00;3.40;;;;;;;28.38;39.37;99523.69;3074989;28;20081;-75
2023/07/19 01:35:25;;;;;;;6.55;3.47;;;;;;;28.36;39.01;99526.53;3071722;28;20055;-76
2023/07/19 01:36:55;;;;;;;4.20;2.95;;;;;;;28.36;39.01;99532.72;3075107;28;20050;-75
2023/07/19 01:38:28;;;;;;;6.03;3.00;;;;;;;28.38;39.25;99526.34;3083702;28;20066;-75
2023/07/19 01:40:00;;;;;;;6.15;3.45;;;;;;;28.34;39.35;99517.88;3083848;28;20452;-75
2023/07/19 01:41:32;;;;;;;5.22;3.42;;;;;;;28.38;39.46;99521.00;3074606;28;20050;-75
2023/07/19 01:43:03;;;;;;;5.88;3.03;;;;;;;28.38;39.49;99521.00;3072485;28;20559;-75
2023/07/19 01:44:34;;;;;;;5.20;3.25;;;;;;;28.39;39.06;99520.78;3083666;28;20051;-75
2023/07/19 01:46:06;;;;;;;7.97;3.22;;;;;;;28.42;39.27;99517.75;3084062;28;20141;-75
2023/07/19 01:47:38;;;;;;;8.57;3.45;;;;;;;28.43;39.17;99523.97;3080896;28;20050;-74
2023/07/19 01:49:09;;;;;;;5.50;3.60;;;;;;;28.43;38.94;99516.75;3071449;28;20106;-73
2023/07/19 01:50:41;;;;;;;5.32;3.28;;;;;;;28.44;39.36;99518.41;3081606;28;20536;-74
2023/07/19 01:52:12;;;;;;;6.70;3.08;;;;;;;28.45;39.03;99521.91;3082313;28;20230;-74
2023/07/19 01:53:45;;;;;;;5.45;3.03;;;;;;;28.48;39.36;99524.19;3071464;28;20543;-74
2023/07/19 01:55:15;;;;;;;;;;;;;;;28.29;39.54;99512.25;3074864;28;20047;-76
2023/07/19 01:56:47;;;;;;;4.93;3.05;;;;;;;28.34;39.14;99515.19;3071217;29;19922;-76
2023/07/19 01:58:18;;;;;;;10.95;3.10;;;;;;;28.39;39.54;99519.97;3076953;28;20051;-76
2023/07/19 01:59:50;;;;;;;4.82;2.50;;;;;;;28.41;39.33;99515.25;3086108;28;20043;-73
2023/07/19 02:01:22;;;;;;;4.30;2.70;;;;;;;28.39;39.31;99519.97;3086221;28;20054;-73
2023/07/19 02:02:53;;;;;;;5.75;3.50;;;;;;;28.39;39.30;99514.59;3077557;28;20163;-73
2023/07/19 02:04:25;;;;;;;5.05;3.13;;;;;;;28.30;39.54;99501.34;3076572;28;20079;-73
2023/07/19 02:05:56;;;;;;;7.38;3.45;;;;;;;28.33;39.59;99511.66;3086058;28;20051;-75
2023/07/19 02:07:28;;;;;;;5.10;3.28;;;;;;;28.31;39.53;99505.69;3085993;28;20057;-74
2023/07/19 02:09:01;;;;;;;5.03;3.22;;;;;;;28.32;39.30;99511.88;3085904;28;20051;-74
2023/07/19 02:10:32;;;;;;;4.90;3.13;;;;;;;28.28;39.51;99506.06;3084814;28;20059;-75
2023/07/19 02:12:04;;;;;;;5.35;3.33;;;;;;;28.26;39.56;99515.31;3085871;28;20081;-74
2023/07/19 02:13:36;;;;;;;6.80;3.03;;;;;;;28.19;39.93;99520.63;3086039;28;20053;-74
2023/07/19 02:15:07;;;;;;;8.68;3.80;;;;;;;28.14;39.69;99523.03;3086103;28;20062;-74
2023/07/19 02:16:39;;;;;;;5.18;3.22;;;;;;;28.10;39.68;99524.41;3085065;28;20771;-74
2023/07/19 02:18:10;;;;;;;12.82;4.65;;;;;;;28.07;39.88;99519.44;3074100;28;20051;-74
2023/07/19 02:19:41;;;;;;;5.00;3.85;;;;;;;28.02;40.49;99527.22;3081868;28;20047;-74
2023/07/19 02:21:12;;;;;;;11.63;3.60;;;;;;;27.99;40.35;99527.59;3085809;28;20046;-74
2023/07/19 02:22:44;;;;;;;5.45;3.72;;;;;;;27.95;40.29;99519.09;3085970;28;20598;-74
2023/07/19 02:24:17;;;;;;;4.75;2.90;;;;;;;27.95;40.47;99528.97;3085547;28;20440;-74
2023/07/19 02:25:49;;;;;;;11.25;3.35;;;;;;;27.87;40.58;99528.06;3078025;28;20545;-74
2023/07/19 02:27:20;;;;;;;6.15;3.28;;;;;;;27.83;40.94;99525.94;3074028;28;20059;-73
2023/07/19 02:28:52;;;;;;;7.45;3.42;;;;;;;27.79;40.62;99513.97;3077395;28;20058;-74
2023/07/19 02:30:23;;;;;;;8.90;3.75;;;;;;;27.75;41.17;99521.53;3085437;28;20043;-74
2023/07/19 02:31:55;;;;;;;9.27;4.35;;;;;;;27.72;40.92;99513.88;3079877;28;20061;-74
2023/07/19 02:33:26;;;;;;;6.07;3.30;;;;;;;27.69;41.06;99514.25;3075559;28;20062;-74
2023/07/19 02:34:58;;;;;;;6.28;4.13;;;;;;;27.66;41.47;99520.78;3085665;28;20051;-75
2023/07/19 02:36:29;;;;;;;4.97;3.95;;;;;;;27.68;41.09;99520.59;3085540;28;20456;-75
2023/07/19 02:38:00;;;;;;;5.53;3.40;;;;;;;27.65;41.41;99529.81;3085746;28;20059;-75
2023/07/19 02:39:33;;;;;;;4.82;3.47;;;;;;;27.63;41.41;99526.53;3085531;28;20051;-75
2023/07/19 02:41:06;;;;;;;10.25;4.07;;;;;;;27.57;41.30;99521.91;3079719;28;20078;-75
2023/07/19 02:42:37;;;;;;;8.10;3.95;;;;;;;27.57;41.46;99515.75;3073608;28;20059;-75
2023/07/19 02:44:09;;;;;;;9.88;4.10;;;;;;;27.56;41.86;99520.22;3083337;28;20050;-74
2023/07/19 02:45:41;;;;;;;10.82;3.90;;;;;;;27.54;41.83;99518.75;3085527;28;20050;-76
2023/07/19 02:47:12;;;;;;;5.43;3.67;;;;;;;27.51;41.75;99513.78;3078992;28;20054;-75
2023/07/19 02:48:44;;;;;;;6.47;3.80;;;;;;;27.48;41.99;99514.16;3085122;28;20552;-75
2023/07/19 02:50:16;;;;;;;8.27;4.10;;;;;;;27.48;41.55;99524.84;3085348;28;20053;-76
2023/07/19 02:51:48;;;;;;;7.18;4.07;;;;;;;27.48;41.63;99523.03;3084842;28;20050;-74
2023/07/19 02:53:19;;;;;;;10.00;4.30;;;;;;;27.48;42.08;99523.03;3075578;28;20839;-76
2023/07/19 02:54:52;;;;;;;7.30;3.55;;;;;;;27.48;41.87;99519.50;3077075;28;20051;-76
2023/07/19 02:56:23;;;;;;;8.32;4.43;;;;;;;27.46;42.04;99514.34;3077140;28;20425;-75
2023/07/19 02:57:55;;;;;;;9.98;3.88;;;;;;;27.45;41.71;99510.03;3075698;28;20061;-75
2023/07/19 02:59:26;;;;;;;7.72;4.22;;;;;;;27.43;42.15;99514.72;3085302;28;20579;-76
2023/07/19 03:00:58;;;;;;;6.60;3.47;;;;;;;27.41;41.81;99517.56;3079074;28;20071;-75
2023/07/19 03:02:29;;;;;;;7.88;4.15;;;;;;;27.41;41.88;99519.41;3072880;28;20473;-75
2023/07/19 03:04:02;;;;;;;9.77;3.88;;;;;;;27.39;41.72;99518.78;3061687;29;20199;-74
2023/07/19 03:05:34;;;;;;;7.75;3.78;;;;;;;27.38;41.73;99517.13;3084174;28;20073;-75
2023/07/19 03:07:07;;;;;;;10.77;3.90;;;;;;;27.38;42.22;99515.28;3085077;28;20054;-76
2023/07/19 03:08:37;;;;;;;8.30;4.20;;;;;;;27.38;42.30;99511.78;3085076;28;20160;-77
2023/07/19 03:10:11;;;;;;;9.25;4.22;;;;;;;27.40;41.91;99518.59;3084485;28;20086;-76
2023/07/19 03:11:42;;;;;;;12.65;4.25;;;;;;;27.41;42.24;99520.25;3074397;28;20051;-74
2023/07/19 03:13:14;;;;;;;8.88;3.70;;;;;;;27.43;41.62;99518.22;3080913;28;20504;-74
2023/07/19 03:14:44;;;;;;;8.93;4.20;;;;;;;27.43;41.90;99517.41;3084851;28;20124;-77
2023/07/19 03:16:16;;;;;;;7.03;3.50;;;;;;;27.43;41.85;99518.22;3074168;28;20051;-77
2023/07/19 03:17:47;;;;;;;12.18;3.90;;;;;;;27.44;42.17;99519.06;3078532;28;20073;-77
2023/07/19 03:19:19;;;;;;;6.28;3.85;;;;;;;27.46;42.13;99519.69;3085284;28;20055;-77
2023/07/19 03:20:56;;;;;;;9.55;3.72;;;;;;;27.50;41.58;99528.19;3084798;28;20105;-76
2023/07/19 03:22:27;;;;;;;5.43;3.30;;;;;;;27.50;42.14;99525.50;3076237;28;20658;-76
2023/07/19 03:23:58;;;;;;;7.68;3.92;;;;;;;27.51;41.68;99524.47;3084901;28;20058;-73
2023/07/19 03:25:32;;;;;;;11.23;3.67;;;;;;;27.50;42.06;99525.50;3082683;28;20448;-74
2023/07/19 03:27:03;;;;;;;12.07;3.90;;;;;;;27.52;41.73;99528.84;3073243;28;20429;-75
2023/07/19 03:28:35;;;;;;;7.88;3.42;;;;;;;27.53;42.11;99531.31;3073590;28;20074;-75
2023/07/19 03:30:07;;;;;;;11.35;4.10;;;;;;;27.52;41.88;99534.19;3081307;28;20047;-76
2023/07/19 03:31:39;;;;;;;6.15;4.28;;;;;;;27.52;42.10;99528.84;3061500;29;20062;-75
2023/07/19 03:33:10;;;;;;;8.73;4.28;;;;;;;27.52;41.91;99529.66;3084020;28;20062;-75
2023/07/19 03:34:41;;;;;;;7.28;4.10;;;;;;;27.54;41.87;99535.66;3085060;28;20065;-74
2023/07/19 03:36:13;;;;;;;6.75;3.88;;;;;;;27.54;41.87;99530.31;3084885;28;20504;-75
2023/07/19 03:37:44;;;;;;;7.63;3.88;;;;;;;27.53;42.17;99527.81;3084965;28;20062;-74
2023/07/19 03:39:16;;;;;;;7.03;3.40;;;;;;;27.52;42.46;99524.31;3085152;28;20055;-73
2023/07/19 03:40:48;;;;;;;14.63;4.85;;;;;;;27.54;42.48;99532.13;3081109;28;20589;-73
2023/07/19 03:42:20;;;;;;;8.57;3.95;;;;;;;27.53;42.34;99525.97;3072988;28;20806;-75
2023/07/19 03:43:51;;;;;;;8.50;3.85;;;;;;;27.55;42.55;99520.44;3079600;28;20066;-75
2023/07/19 03:45:25;;;;;;;11.13;4.15;;;;;;;27.52;42.51;99518.13;3075371;28;20508;-75
2023/07/19 03:46:56;;;;;;;11.75;4.07;;;;;;;27.51;42.65;99528.00;3078199;28;20487;-75
2023/07/19 03:48:28;;;;;;;9.50;4.47;;;;;;;27.48;42.72;99533.72;3079555;28;20051;-74
2023/07/19 03:49:58;;;;;;;11.85;4.40;;;;;;;27.45;42.51;99529.56;3084525;28;20440;-72
2023/07/19 03:51:30;;;;;;;11.13;4.25;;;;;;;27.43;42.55;99534.28;3083459;28;20057;-72
2023/07/19 03:53:01;;;;;;;11.75;4.63;;;;;;;27.39;43.11;99527.66;3077159;28;20055;-74
2023/07/19 03:54:33;;;;;;;11.20;4.20;;;;;;;27.38;42.98;99533.16;3073951;28;20198;-76
2023/07/19 03:56:06;;;;;;;9.00;3.97;;;;;;;27.36;42.76;99536.03;3078865;28;20051;-76
2023/07/19 03:57:37;;;;;;;8.07;4.20;;;;;;;27.32;43.33;99528.56;3072849;28;20047;-76
2023/07/19 03:59:09;;;;;;;12.27;4.20;;;;;;;27.29;43.06;99520.91;3083949;28;20054;-74
2023/07/19 04:00:40;;;;;;;12.48;4.07;;;;;;;27.28;43.08;99520.06;3083110;28;20074;-73
2023/07/19 04:02:11;;;;;;;12.00;4.25;;;;;;;27.26;43.22;99513.25;3083564;28;20055;-72
2023/07/19 04:03:43;;;;;;;7.05;3.83;;;;;;;27.25;43.21;99512.44;3082192;28;20128;-75
2023/07/19 04:05:14;;;;;;;7.38;4.20;;;;;;;27.26;43.23;99513.25;3071480;29;20171;-72
2023/07/19 04:06:46;;;;;;;6.50;4.25;;;;;;;27.23;43.25;99506.41;3082886;28;20059;-72
2023/07/19 04:08:17;;;;;;;12.73;4.22;;;;;;;27.23;43.74;99509.91;3084272;28;20166;-72
2023/07/19 04:09:49;;;;;;;13.32;4.35;;;;;;;27.24;43.73;99513.41;3083619;28;20624;-69
2023/07/19 04:11:21;;;;;;;10.15;4.30;;;;;;;27.25;43.64;99509.75;3076536;28;20453;-71
2023/07/19 04:12:53;;;;;;;12.35;4.60;;;;;;;27.23;43.82;99509.91;3072856;28;20083;-70
2023/07/19 04:14:24;;;;;;;11.60;4.53;;;;;;;27.22;43.78;99515.47;3082100;28;20480;-75
2023/07/19 04:15:56;;;;;;;10.43;4.13;;;;;;;27.23;43.76;99509.09;3072720;28;20055;-75
2023/07/19 04:17:27;;;;;;;7.90;3.95;;;;;;;27.20;44.00;99506.78;3080829;28;20046;-73
2023/07/19 04:18:59;;;;;;;19.77;4.63;;;;;;;27.21;43.62;99501.28;3082384;28;20189;-71
2023/07/19 04:20:30;;;;;;;6.35;4.20;;;;;;;27.21;43.69;99503.94;3083191;28;20047;-76
2023/07/19 04:22:02;;;;;;;8.70;4.32;;;;;;;27.23;43.91;99506.41;3084079;28;20085;-76
2023/07/19 04:23:33;;;;;;;10.87;4.60;;;;;;;27.25;43.92;99501.72;3084356;28;20062;-75
2023/07/19 04:25:06;;;;;;;7.00;4.47;;;;;;;27.30;43.85;99501.16;3084545;28;20314;-80
2023/07/19 04:26:38;;;;;;;8.20;4.03;;;;;;;27.33;43.93;99504.31;3074258;28;20061;-74
2023/07/19 04:28:11;;;;;;;15.05;7.35;;;;;;;27.35;44.06;99496.09;3073474;28;20055;-76
2023/07/19 04:29:42;;;;;;;7.85;4.20;;;;;;;27.38;43.97;99507.25;3074707;28;20422;-72
2023/07/19 04:31:13;;;;;;;12.23;5.07;;;;;;;27.41;44.11;99509.56;3072579;28;20059;-71
2023/07/19 04:32:44;;;;;;;19.33;4.68;;;;;;;27.44;43.86;99505.69;3083957;28;20535;-71
2023/07/19 04:34:16;;;;;;;45.00;27.88;;;;;;;27.47;43.72;99507.16;3084417;28;20070;-71
2023/07/19 04:35:47;;;;;;;20.17;10.73;;;;;;;27.51;43.81;99506.63;3084193;28;20436;-70
2023/07/19 04:37:19;;;;;;;18.55;6.53;;;;;;;27.55;43.83;99507.88;3084125;28;20058;-69
2023/07/19 04:38:49;;;;;;;16.30;4.68;;;;;;;27.61;43.65;99506.31;3084366;28;20054;-72
2023/07/19 04:40:21;;;;;;;13.27;4.15;;;;;;;27.62;43.42;99502.63;3084083;28;20206;-66
2023/07/19 04:41:54;;;;;;;9.75;3.92;;;;;;;27.64;43.50;99505.94;3084320;28;20077;-67
2023/07/19 04:43:25;;;;;;;16.85;4.20;;;;;;;27.62;43.69;99495.41;3083455;28;20069;-64
2023/07/19 04:44:56;;;;;;;13.05;4.38;;;;;;;27.65;43.79;99497.72;3078890;28;20187;-64
2023/07/19 04:46:28;;;;;;;11.65;4.60;;;;;;;27.66;43.96;99499.41;3082980;28;20094;-65
2023/07/19 04:47:59;;;;;;;14.00;4.25;;;;;;;27.68;44.07;99501.88;3083983;28;20093;-66
2023/07/19 04:49:31;;;;;;;9.48;4.10;;;;;;;27.70;43.95;99504.38;3082590;28;20055;-69
2023/07/19 04:51:06;;;;;;;20.00;5.30;;;;;;;27.70;43.74;99499.03;3083553;28;20051;-69
2023/07/19 04:52:37;;;;;;;8.20;3.85;;;;;;;27.72;43.47;99497.00;3079267;28;20062;-67
2023/07/19 04:54:10;;;;;;;12.15;5.63;;;;;;;27.74;43.75;99503.78;3071988;28;20082;-68
2023/07/19 04:55:42;;;;;;;12.98;5.30;;;;;;;27.78;43.61;99497.09;3079688;28;20061;-67
2023/07/19 04:57:16;;;;;;;14.38;5.00;;;;;;;27.81;43.58;99493.22;3072104;28;20426;-66
2023/07/19 04:58:47;;;;;;;8.93;4.35;;;;;;;27.82;43.53;99493.00;3075829;28;20532;-68
2023/07/19 05:00:20;;;;;;;10.63;4.22;;;;;;;27.85;43.51;99492.63;3073840;28;20051;-65
2023/07/19 05:01:51;;;;;;;11.20;4.20;;;;;;;27.87;43.12;99497.81;3083916;28;20050;-70
2023/07/19 05:03:23;;;;;;;10.93;4.40;;;;;;;27.90;43.38;99497.44;3073300;28;20317;-68
2023/07/19 05:04:55;;;;;;;11.27;4.53;;;;;;;27.96;43.10;99503.88;3071640;28;20592;-68
2023/07/19 05:06:27;;;;;;;10.32;4.55;;;;;;;27.99;42.93;99501.66;3071758;28;20051;-69
2023/07/19 05:08:00;;;;;;;10.10;4.85;;;;;;;28.07;42.98;99506.03;3083689;28;20046;-66
2023/07/19 05:09:31;;;;;;;12.47;4.57;;;;;;;28.12;42.96;99503.63;3083424;28;20082;-66
2023/07/19 05:11:03;;;;;;;13.43;4.40;;;;;;;28.16;43.19;99499.56;3077971;28;20059;-66
2023/07/19 05:12:35;;;;;;;9.90;4.50;;;;;;;28.26;43.01;99504.59;3071548;28;20162;-66
2023/07/19 05:14:08;;;;;;;13.27;5.03;;;;;;;28.29;42.43;99499.69;3071688;28;20055;-66
2023/07/19 05:15:40;;;;;;;15.30;4.43;;;;;;;28.35;42.51;99506.97;3071828;28;20058;-66
2023/07/19 05:17:11;;;;;;;11.82;4.72;;;;;;;28.44;42.54;99512.22;3082025;28;20046;-66
2023/07/19 05:18:43;;;;;;;13.18;4.18;;;;;;;28.49;42.71;99504.44;3083102;28;20057;-66
2023/07/19 05:20:14;;;;;;;17.55;4.72;;;;;;;28.56;42.55;99499.97;3083688;28;20054;-67
2023/07/19 05:21:46;;;;;;;9.70;4.43;;;;;;;28.61;42.49;99508.25;3079333;28;20065;-68
2023/07/19 05:23:17;;;;;;;12.02;4.30;;;;;;;28.70;42.20;99506.28;3080695;28;20051;-67
2023/07/19 05:24:49;;;;;;;16.85;4.53;;;;;;;28.77;42.33;99502.59;3083611;28;20082;-67
2023/07/19 05:26:20;;;;;;;14.52;4.35;;;;;;;28.82;41.80;99506.56;3075706;28;20444;-65
2023/07/19 05:27:53;;;;;;;11.82;4.20;;;;;;;28.87;41.89;99504.13;3071468;28;20158;-64
2023/07/19 05:29:24;;;;;;;11.75;4.40;;;;;;;28.91;41.73;99506.22;3077429;28;20058;-64
2023/07/19 05:31:01;;;;;;;11.25;4.07;;;;;;;28.99;41.34;99505.25;3083432;28;20046;-65
2023/07/19 05:32:33;;;;;;;12.15;4.78;;;;;;;29.05;41.18;99498.28;3082906;28;20580;-65
2023/07/19 05:34:04;;;;;;;7.53;3.72;;;;;;;29.10;41.35;99501.22;3083800;28;20062;-65
2023/07/19 05:35:37;;;;;;;8.07;4.00;;;;;;;29.17;41.37;99502.09;3083287;28;20055;-65
2023/07/19 05:37:08;;;;;;;11.93;4.50;;;;;;;29.22;40.91;99505.00;3083490;28;20050;-65
2023/07/19 05:38:40;;;;;;;25.65;5.70;;;;;;;29.28;40.95;99506.06;3083700;28;20520;-65
2023/07/19 05:40:11;;;;;;;7.70;4.40;;;;;;;29.37;41.17;99505.72;3080101;28;20085;-65
2023/07/19 05:41:43;;;;;;;17.73;4.40;;;;;;;29.44;40.81;99505.75;3071711;28;20087;-68
2023/07/19 05:43:16;;;;;;;16.83;4.20;;;;;;;29.53;40.82;99501.88;3081840;28;20055;-67
2023/07/19 05:44:47;;;;;;;17.67;4.10;;;;;;;29.59;40.19;99503.75;3083292;28;20488;-68
2023/07/19 05:46:18;;;;;;;12.20;4.97;;;;;;;29.67;40.22;99513.53;3083335;28;20062;-68
2023/07/19 05:47:50;;;;;;;8.30;4.28;;;;;;;29.74;39.67;99503.63;3082275;28;20516;-68
2023/07/19 05:49:21;;;;;;;10.30;4.13;;;;;;;29.80;39.72;99502.00;3083405;28;20074;-68
2023/07/19 05:50:53;;;;;;;11.68;3.97;;;;;;;29.91;39.35;99504.94;3082994;28;20046;-68
2023/07/19 05:52:27;;;;;;;11.88;4.00;;;;;;;29.97;39.38;99508.69;3079896;28;20062;-70
2023/07/19 05:53:58;;;;;;;7.65;4.45;;;;;;;30.03;38.95;99502.50;3077912;28;20134;-69
2023/07/19 05:55:30;;;;;;;11.45;3.80;;;;;;;30.11;39.05;99504.16;3081723;28;20070;-68
2023/07/19 05:57:01;;;;;;;15.23;4.30;;;;;;;30.17;38.95;99506.00;3075035;28;20047;-68
2023/07/19 05:58:34;;;;;;;7.82;4.07;;;;;;;30.27;38.89;99509.19;3070765;28;20440;-69
2023/07/19 06:00:10;;;;;;;10.82;3.90;;;;;;;30.33;38.33;99510.22;3071800;28;20114;-69
2023/07/19 06:01:42;;;;;;;18.80;4.88;;;;;;;30.39;38.23;99506.72;3082579;28;20072;-69
2023/07/19 06:03:16;;;;;;;11.40;4.35;;;;;;;30.48;38.22;99516.22;3074074;28;20047;-69
2023/07/19 06:04:48;;;;;;;12.85;4.80;;;;;;;30.57;38.22;99509.63;3071253;28;20105;-71
2023/07/19 06:06:19;;;;;;;12.77;4.10;;;;;;;30.65;37.89;99511.28;3071261;28;20090;-72
2023/07/19 06:07:51;;;;;;;13.18;4.72;;;;;;;30.72;37.60;99505.91;3080070;28;20066;-72
2023/07/19 06:09:22;;;;;;;10.77;4.47;;;;;;;30.77;37.46;99506.94;3083246;28;20073;-73
2023/07/19 06:10:54;;;;;;;16.65;5.05;;;;;;;30.88;37.30;99505.53;3075907;28;20047;-71
2023/07/19 06:12:25;;;;;;;9.27;4.03;;;;;;;30.97;37.41;99509.66;3077017;28;20054;-72
2023/07/19 06:13:59;;;;;;;7.80;4.70;;;;;;;31.07;37.18;99508.38;3083219;28;20077;-69
2023/07/19 06:15:43;;;;;;;16.92;4.43;;;;;;;31.14;36.94;99495.75;3059615;29;20067;-71
2023/07/19 06:17:13;;;;;;;14.52;4.25;;;;;;;31.20;36.64;99492.19;3060144;29;20059;-71
2023/07/19 06:18:45;;;;;;;22.05;3.97;;;;;;;31.31;36.63;99496.13;3071337;28;20059;-72
2023/07/19 06:20:17;;;;;;;9.52;3.75;;;;;;;31.39;36.45;99491.38;3082221;28;20059;-71
2023/07/19 06:21:49;;;;;;;7.88;3.55;;;;;;;31.47;36.52;99493.81;3082634;28;20468;-71
2023/07/19 06:23:20;;;;;;;7.30;3.42;;;;;;;31.56;36.37;99490.88;3082623;28;20050;-71
2023/07/19 06:24:52;;;;;;;7.28;3.85;;;;;;;31.64;35.99;99499.53;3083105;28;20548;-71
2023/07/19 06:26:22;;;;;;;9.98;4.57;;;;;;;31.72;35.97;99493.91;3075583;28;20486;-71
2023/07/19 06:27:54;;;;;;;12.52;4.40;;;;;;;31.80;35.75;99492.00;3071381;28;20051;-71
2023/07/19 06:29:27;;;;;;;11.52;4.10;;;;;;;31.87;35.44;99495.50;3079614;28;20047;-70
2023/07/19 06:31:00;;;;;;;5.60;3.83;;;;;;;31.87;35.01;99496.31;3082974;28;20055;-70
2023/07/19 06:32:30;;;;;;;6.70;3.45;;;;;;;31.88;35.38;99494.44;3082954;28;20051;-70
2023/07/19 06:34:03;;;;;;;5.55;3.60;;;;;;;31.95;35.17;99497.97;3083492;28;20055;-70
2023/07/19 06:35:34;;;;;;;5.40;3.92;;;;;;;32.00;35.27;99497.31;3083307;28;20125;-70
2023/07/19 06:37:07;;;;;;;6.03;3.85;;;;;;;32.06;35.05;99491.88;3075151;28;20163;-70
2023/07/19 06:38:38;;;;;;;6.63;3.80;;;;;;;32.08;34.74;99491.69;3083132;28;20055;-70
2023/07/19 06:40:11;;;;;;;5.93;3.70;;;;;;;32.14;34.47;99499.72;3083427;28;20047;-71
2023/07/19 06:41:43;;;;;;;7.78;3.70;;;;;;;32.16;34.57;99494.13;3072190;28;20055;-71
2023/07/19 06:43:14;;;;;;;6.82;3.65;;;;;;;32.20;34.36;99489.94;3081829;28;20055;-69
2023/07/19 06:44:48;;;;;;;10.65;3.78;;;;;;;32.27;34.20;99489.88;3083700;28;20058;-67
2023/07/19 06:46:19;;;;;;;5.63;3.53;;;;;;;32.30;34.00;99492.16;3085389;28;20130;-69
2023/07/19 06:47:51;;;;;;;7.20;3.85;;;;;;;32.31;33.86;99494.63;3085032;28;20058;-71
2023/07/19 06:49:22;;;;;;;6.05;3.60;;;;;;;32.34;33.72;99498.78;3085630;28;20043;-68
2023/07/19 06:50:56;;;;;;;9.25;3.42;;;;;;;32.38;33.82;99492.69;3084503;28;20046;-71
2023/07/19 06:52:27;;;;;;;7.60;4.25;;;;;;;32.45;33.52;99492.72;3080894;28;20063;-68
2023/07/19 06:53:59;;;;;;;7.68;3.88;;;;;;;32.53;33.57;99492.41;3073650;28;20142;-70
2023/07/19 06:55:31;;;;;;;13.13;3.60;;;;;;;32.60;33.41;99487.81;3073136;28;20134;-69
2023/07/19 06:57:02;;;;;;;7.57;3.30;;;;;;;32.61;33.27;99492.16;3081578;28;20528;-68
2023/07/19 06:58:35;;;;;;;11.80;4.15;;;;;;;32.66;33.06;99488.81;3085377;28;20212;-71
2023/07/19 07:00:08;;;;;;;6.30;4.20;;;;;;;32.69;33.26;99491.06;3079375;28;20082;-68
2023/07/19 07:01:41;;;;;;;6.38;3.88;;;;;;;32.75;33.07;99484.78;3073267;28;20054;-68
2023/07/19 07:03:12;;;;;;;11.87;3.77;;;;;;;32.80;33.11;99476.00;3073025;29;20059;-68
2023/07/19 07:04:44;;;;;;;8.90;4.28;;;;;;;32.87;32.97;99482.19;3078397;28;20128;-68
2023/07/19 07:06:24;;;;;;;11.65;4.32;;;;;;;32.96;33.01;99480.00;3082075;28;20062;-68
2023/07/19 07:08:12;;;;;;;8.07;3.72;;;;;;;33.03;32.78;99480.78;3077553;28;20058;-69
2023/07/19 07:14:21;;;;;;;7.88;3.97;;;;;;;33.15;32.96;99483.56;3038123;29;19927;-69
2023/07/19 07:15:55;;;;;;;6.10;3.50;;;;;;;33.28;32.55;99473.47;3047825;29;20510;-64